sensor_id;sensor_type;location;lat;lon;timestamp;P1;P2;P0
55441;PMS5003;41313;58.740;50.174;2022-09-23T00:02:39;1.00;1.00;0.00
55441;PMS5003;41313;58.740;50.174;2022-09-23T00:07:45;1.00;1.00;1.00
55441;PMS5003;41313;58.740;50.174;2022-09-23T00:12:46;2.50;2.50;1.50
55441;PMS5003;41313;58.740;50.174;2022-09-23T00:17:48;5.25;4.25;2.50
55441;PMS5003;41313;58.740;50.174;2022-09-23T00:22:49;0.50;0.50;0.00
55441;PMS5003;41313;58.740;50.174;2022-09-23T00:27:51;4.00;4.00;1.50
55441;PMS5003;41313;58.740;50.174;2022-09-23T00:32:54;4.00;4.00;1.00
55441;PMS5003;41313;58.740;50.174;2022-09-23T00:37:56;0.25;0.25;0.00
55441;PMS5003;41313;58.740;50.174;2022-09-23T00:42:58;1.00;0.00;0.00
55441;PMS5003;41313;58.740;50.174;2022-09-23T00:48:00;1.00;1.00;0.50
55441;PMS5003;41313;58.740;50.174;2022-09-23T00:53:04;3.00;3.00;2.00
55441;PMS5003;41313;58.740;50.174;2022-09-23T00:58:11;1.00;1.00;1.00
55441;PMS5003;41313;58.740;50.174;2022-09-23T01:03:16;4.00;4.00;1.00
55441;PMS5003;41313;58.740;50.174;2022-09-23T01:08:19;2.00;2.00;1.50
55441;PMS5003;41313;58.740;50.174;2022-09-23T01:24:36;1.00;1.00;0.50
55441;PMS5003;41313;58.740;50.174;2022-09-23T01:35:56;9.00;8.00;5.00
55441;PMS5003;41313;58.740;50.174;2022-09-23T01:46:31;6.00;6.00;3.00
55441;PMS5003;41313;58.740;50.174;2022-09-23T01:51:39;6.00;6.00;4.00
55441;PMS5003;41313;58.740;50.174;2022-09-23T01:56:57;9.50;9.50;5.00
55441;PMS5003;41313;58.740;50.174;2022-09-23T02:02:25;7.00;7.00;5.75
55441;PMS5003;41313;58.740;50.174;2022-09-23T02:07:40;10.00;10.00;6.75
55441;PMS5003;41313;58.740;50.174;2022-09-23T02:12:54;14.75;14.75;8.50
55441;PMS5003;41313;58.740;50.174;2022-09-23T02:18:02;4.75;4.75;2.00
55441;PMS5003;41313;58.740;50.174;2022-09-23T02:23:14;10.75;10.75;7.25
55441;PMS5003;41313;58.740;50.174;2022-09-23T02:28:26;4.75;4.75;3.25
55441;PMS5003;41313;58.740;50.174;2022-09-23T02:33:38;6.50;6.50;5.50
55441;PMS5003;41313;58.740;50.174;2022-09-23T02:38:53;6.50;6.25;5.00
55441;PMS5003;41313;58.740;50.174;2022-09-23T02:49:03;1.00;1.00;0.25
55441;PMS5003;41313;58.740;50.174;2022-09-23T02:54:18;1.00;1.00;0.25
55441;PMS5003;41313;58.740;50.174;2022-09-23T02:59:22;3.25;3.25;1.00
55441;PMS5003;41313;58.740;50.174;2022-09-23T03:15:07;5.00;5.00;3.00
55441;PMS5003;41313;58.740;50.174;2022-09-23T03:20:24;9.00;9.00;6.00
55441;PMS5003;41313;58.740;50.174;2022-09-23T03:25:35;19.00;19.00;11.00
55441;PMS5003;41313;58.740;50.174;2022-09-23T03:30:38;36.67;31.67;14.67
55441;PMS5003;41313;58.740;50.174;2022-09-23T03:35:45;20.33;20.00;7.33
55441;PMS5003;41313;58.740;50.174;2022-09-23T03:41:21;20.33;20.33;11.67
55441;PMS5003;41313;58.740;50.174;2022-09-23T03:46:31;2.00;2.00;0.00
55441;PMS5003;41313;58.740;50.174;2022-09-23T03:51:35;9.25;9.25;7.25
55441;PMS5003;41313;58.740;50.174;2022-09-23T03:56:36;9.75;9.75;6.75
55441;PMS5003;41313;58.740;50.174;2022-09-23T04:01:38;20.00;20.00;15.00
55441;PMS5003;41313;58.740;50.174;2022-09-23T04:06:41;16.50;16.00;9.25
55441;PMS5003;41313;58.740;50.174;2022-09-23T04:11:43;6.75;6.75;4.25
55441;PMS5003;41313;58.740;50.174;2022-09-23T04:16:45;21.00;21.00;14.67
55441;PMS5003;41313;58.740;50.174;2022-09-23T04:21:48;8.50;8.25;6.00
55441;PMS5003;41313;58.740;50.174;2022-09-23T04:26:51;15.00;15.00;12.67
55441;PMS5003;41313;58.740;50.174;2022-09-23T04:31:53;20.00;20.00;13.67
55441;PMS5003;41313;58.740;50.174;2022-09-23T04:36:55;13.25;13.25;9.75
55441;PMS5003;41313;58.740;50.174;2022-09-23T04:41:57;14.00;14.00;11.25
55441;PMS5003;41313;58.740;50.174;2022-09-23T04:46:59;20.00;19.00;13.33
55441;PMS5003;41313;58.740;50.174;2022-09-23T04:52:01;1.00;1.00;1.00
55441;PMS5003;41313;58.740;50.174;2022-09-23T04:57:02;4.00;4.00;1.75
55441;PMS5003;41313;58.740;50.174;2022-09-23T05:02:04;6.25;6.25;4.00
55441;PMS5003;41313;58.740;50.174;2022-09-23T05:07:06;13.33;13.33;11.00
55441;PMS5003;41313;58.740;50.174;2022-09-23T05:12:07;6.00;6.00;3.50
55441;PMS5003;41313;58.740;50.174;2022-09-23T05:17:09;7.75;7.75;4.25
55441;PMS5003;41313;58.740;50.174;2022-09-23T05:22:11;7.25;7.25;4.50
55441;PMS5003;41313;58.740;50.174;2022-09-23T05:27:13;7.50;7.50;6.00
55441;PMS5003;41313;58.740;50.174;2022-09-23T05:32:14;6.50;6.50;4.50
55441;PMS5003;41313;58.740;50.174;2022-09-23T05:37:16;6.75;6.75;5.25
55441;PMS5003;41313;58.740;50.174;2022-09-23T05:42:17;4.50;4.50;2.00
55441;PMS5003;41313;58.740;50.174;2022-09-23T05:47:20;22.00;20.00;14.00
55441;PMS5003;41313;58.740;50.174;2022-09-23T05:52:22;11.25;11.25;7.25
55441;PMS5003;41313;58.740;50.174;2022-09-23T05:57:25;5.75;5.75;3.00
55441;PMS5003;41313;58.740;50.174;2022-09-23T06:02:27;6.00;6.00;2.75
55441;PMS5003;41313;58.740;50.174;2022-09-23T06:07:28;12.75;12.75;8.00
55441;PMS5003;41313;58.740;50.174;2022-09-23T06:12:31;34.33;32.33;20.00
55441;PMS5003;41313;58.740;50.174;2022-09-23T06:17:33;18.67;18.67;14.33
55441;PMS5003;41313;58.740;50.174;2022-09-23T06:22:35;8.50;8.50;5.75
55441;PMS5003;41313;58.740;50.174;2022-09-23T06:27:36;3.00;3.00;2.50
55441;PMS5003;41313;58.740;50.174;2022-09-23T06:32:38;7.50;7.50;3.75
55441;PMS5003;41313;58.740;50.174;2022-09-23T06:37:40;6.00;6.00;3.25
55441;PMS5003;41313;58.740;50.174;2022-09-23T06:42:42;6.00;6.00;5.00
55441;PMS5003;41313;58.740;50.174;2022-09-23T06:47:44;3.25;3.25;3.00
55441;PMS5003;41313;58.740;50.174;2022-09-23T06:52:50;11.00;11.00;7.00
55441;PMS5003;41313;58.740;50.174;2022-09-23T06:57:59;7.75;7.75;6.50
55441;PMS5003;41313;58.740;50.174;2022-09-23T07:03:04;5.00;5.00;3.25
55441;PMS5003;41313;58.740;50.174;2022-09-23T07:08:10;5.50;5.50;3.00
55441;PMS5003;41313;58.740;50.174;2022-09-23T07:13:11;5.00;5.00;3.50
55441;PMS5003;41313;58.740;50.174;2022-09-23T07:18:13;7.00;7.00;4.00
55441;PMS5003;41313;58.740;50.174;2022-09-23T07:23:14;0.75;0.75;0.00
55441;PMS5003;41313;58.740;50.174;2022-09-23T07:28:18;7.00;7.00;5.50
55441;PMS5003;41313;58.740;50.174;2022-09-23T07:33:20;10.75;10.75;7.25
55441;PMS5003;41313;58.740;50.174;2022-09-23T07:38:22;10.00;10.00;6.50
55441;PMS5003;41313;58.740;50.174;2022-09-23T07:43:29;14.75;12.00;7.00
55441;PMS5003;41313;58.740;50.174;2022-09-23T07:48:35;6.50;6.50;5.75
55441;PMS5003;41313;58.740;50.174;2022-09-23T07:53:38;5.00;5.00;3.25
55441;PMS5003;41313;58.740;50.174;2022-09-23T07:58:40;7.00;7.00;6.00
55441;PMS5003;41313;58.740;50.174;2022-09-23T08:03:44;7.75;7.75;6.50
55441;PMS5003;41313;58.740;50.174;2022-09-23T08:08:46;8.00;8.00;6.00
55441;PMS5003;41313;58.740;50.174;2022-09-23T08:13:48;11.00;10.75;6.75
55441;PMS5003;41313;58.740;50.174;2022-09-23T08:18:50;8.75;8.75;5.25
55441;PMS5003;41313;58.740;50.174;2022-09-23T08:23:53;18.50;18.50;12.00
55441;PMS5003;41313;58.740;50.174;2022-09-23T08:28:55;5.75;5.75;4.50
55441;PMS5003;41313;58.740;50.174;2022-09-23T08:33:57;8.50;8.50;6.75
55441;PMS5003;41313;58.740;50.174;2022-09-23T08:39:00;14.50;14.00;9.00
55441;PMS5003;41313;58.740;50.174;2022-09-23T08:44:09;5.75;5.75;4.25
55441;PMS5003;41313;58.740;50.174;2022-09-23T08:49:38;11.50;9.50;7.50
55441;PMS5003;41313;58.740;50.174;2022-09-23T08:54:48;5.00;5.00;3.00
55441;PMS5003;41313;58.740;50.174;2022-09-23T08:59:50;7.50;7.50;5.75
55441;PMS5003;41313;58.740;50.174;2022-09-23T09:04:53;8.50;8.00;6.00
55441;PMS5003;41313;58.740;50.174;2022-09-23T09:15:20;7.00;7.00;4.75
55441;PMS5003;41313;58.740;50.174;2022-09-23T09:25:48;4.00;4.00;3.00
55441;PMS5003;41313;58.740;50.174;2022-09-23T09:41:47;8.75;8.75;6.25
55441;PMS5003;41313;58.740;50.174;2022-09-23T09:57:29;13.25;13.25;9.50
55441;PMS5003;41313;58.740;50.174;2022-09-23T10:02:37;14.00;14.00;10.00
55441;PMS5003;41313;58.740;50.174;2022-09-23T10:07:41;15.75;15.75;13.50
55441;PMS5003;41313;58.740;50.174;2022-09-23T10:12:43;22.50;22.50;20.00
55441;PMS5003;41313;58.740;50.174;2022-09-23T10:17:48;10.00;10.00;8.00
55441;PMS5003;41313;58.740;50.174;2022-09-23T10:22:52;16.00;16.00;10.00
55441;PMS5003;41313;58.740;50.174;2022-09-23T10:27:57;12.00;12.00;9.75
55441;PMS5003;41313;58.740;50.174;2022-09-23T10:32:59;13.00;13.00;11.00
55441;PMS5003;41313;58.740;50.174;2022-09-23T10:38:02;12.50;12.50;10.50
55441;PMS5003;41313;58.740;50.174;2022-09-23T10:49:01;14.00;14.00;10.00
55441;PMS5003;41313;58.740;50.174;2022-09-23T11:05:34;8.75;8.75;6.75
55441;PMS5003;41313;58.740;50.174;2022-09-23T11:11:02;9.00;9.00;5.50
55441;PMS5003;41313;58.740;50.174;2022-09-23T11:37:42;9.00;8.25;6.25
55441;PMS5003;41313;58.740;50.174;2022-09-23T11:43:12;21.00;21.00;11.75
55441;PMS5003;41313;58.740;50.174;2022-09-23T11:53:47;11.50;11.50;6.75
55441;PMS5003;41313;58.740;50.174;2022-09-23T11:59:09;23.25;23.25;17.50
55441;PMS5003;41313;58.740;50.174;2022-09-23T12:04:38;26.00;25.00;16.00
55441;PMS5003;41313;58.740;50.174;2022-09-23T12:09:56;22.25;20.75;13.75
55441;PMS5003;41313;58.740;50.174;2022-09-23T12:26:06;13.75;13.50;10.00
55441;PMS5003;41313;58.740;50.174;2022-09-23T12:31:18;12.50;12.50;8.00
55441;PMS5003;41313;58.740;50.174;2022-09-23T12:36:33;17.00;16.00;9.50
55441;PMS5003;41313;58.740;50.174;2022-09-23T12:41:37;13.50;13.50;8.75
55441;PMS5003;41313;58.740;50.174;2022-09-23T12:46:42;13.25;13.25;8.00
55441;PMS5003;41313;58.740;50.174;2022-09-23T12:52:11;13.00;13.00;7.00
55441;PMS5003;41313;58.740;50.174;2022-09-23T12:57:38;15.25;15.25;10.00
55441;PMS5003;41313;58.740;50.174;2022-09-23T13:02:36;41.00;36.50;17.50
55441;PMS5003;41313;58.740;50.174;2022-09-23T13:08:18;44.00;39.67;22.33
55441;PMS5003;41313;58.740;50.174;2022-09-23T13:13:25;19.25;18.50;12.50
55441;PMS5003;41313;58.740;50.174;2022-09-23T13:18:49;22.25;20.25;14.50
55441;PMS5003;41313;58.740;50.174;2022-09-23T13:29:23;18.25;18.25;13.00
55441;PMS5003;41313;58.740;50.174;2022-09-23T13:34:29;21.00;20.75;11.50
55441;PMS5003;41313;58.740;50.174;2022-09-23T13:39:36;20.75;20.75;14.75
55441;PMS5003;41313;58.740;50.174;2022-09-23T13:44:38;31.50;30.50;23.00
55441;PMS5003;41313;58.740;50.174;2022-09-23T13:49:40;22.75;22.25;15.25
55441;PMS5003;41313;58.740;50.174;2022-09-23T13:54:47;51.33;43.33;26.67
55441;PMS5003;41313;58.740;50.174;2022-09-23T13:59:49;28.25;28.25;19.00
55441;PMS5003;41313;58.740;50.174;2022-09-23T14:04:53;23.00;23.00;16.50
55441;PMS5003;41313;58.740;50.174;2022-09-23T14:09:57;13.50;13.50;8.00
55441;PMS5003;41313;58.740;50.174;2022-09-23T14:14:58;18.75;18.75;12.50
55441;PMS5003;41313;58.740;50.174;2022-09-23T14:20:01;46.67;38.00;18.00
55441;PMS5003;41313;58.740;50.174;2022-09-23T14:25:04;49.33;40.00;22.67
55441;PMS5003;41313;58.740;50.174;2022-09-23T14:30:13;35.75;35.50;18.75
55441;PMS5003;41313;58.740;50.174;2022-09-23T14:35:21;50.33;43.33;28.00
55441;PMS5003;41313;58.740;50.174;2022-09-23T14:40:37;31.00;31.00;26.33
55441;PMS5003;41313;58.740;50.174;2022-09-23T14:45:51;21.67;21.67;18.33
55441;PMS5003;41313;58.740;50.174;2022-09-23T14:50:56;60.33;49.33;30.33
55441;PMS5003;41313;58.740;50.174;2022-09-23T15:06:36;14.75;14.75;10.00
55441;PMS5003;41313;58.740;50.174;2022-09-23T15:11:39;17.25;17.25;9.75
55441;PMS5003;41313;58.740;50.174;2022-09-23T15:16:41;48.67;46.00;33.00
55441;PMS5003;41313;58.740;50.174;2022-09-23T15:21:43;23.25;23.25;15.75
55441;PMS5003;41313;58.740;50.174;2022-09-23T15:26:47;37.33;36.33;23.00
55441;PMS5003;41313;58.740;50.174;2022-09-23T15:31:52;36.67;36.67;26.67
55441;PMS5003;41313;58.740;50.174;2022-09-23T15:36:55;45.67;41.67;30.33
55441;PMS5003;41313;58.740;50.174;2022-09-23T15:41:57;25.25;25.25;19.00
55441;PMS5003;41313;58.740;50.174;2022-09-23T15:47:00;29.67;29.67;19.67
55441;PMS5003;41313;58.740;50.174;2022-09-23T15:52:03;21.00;21.00;13.75
55441;PMS5003;41313;58.740;50.174;2022-09-23T15:57:06;61.00;49.00;27.67
55441;PMS5003;41313;58.740;50.174;2022-09-23T16:02:12;29.75;28.50;16.50
55441;PMS5003;41313;58.740;50.174;2022-09-23T16:07:21;23.00;23.00;16.75
55441;PMS5003;41313;58.740;50.174;2022-09-23T16:12:25;22.75;22.75;15.75
55441;PMS5003;41313;58.740;50.174;2022-09-23T16:17:27;29.75;29.75;19.25
55441;PMS5003;41313;58.740;50.174;2022-09-23T16:22:29;84.67;65.67;37.33
55441;PMS5003;41313;58.740;50.174;2022-09-23T16:27:31;28.00;28.00;20.67
55441;PMS5003;41313;58.740;50.174;2022-09-23T16:32:35;15.25;15.25;10.00
55441;PMS5003;41313;58.740;50.174;2022-09-23T16:37:37;74.00;57.67;30.33
55441;PMS5003;41313;58.740;50.174;2022-09-23T16:42:39;125.25;93.75;42.50
55441;PMS5003;41313;58.740;50.174;2022-09-23T16:47:41;84.00;60.33;33.67
55441;PMS5003;41313;58.740;50.174;2022-09-23T16:52:47;59.00;44.67;25.33
55441;PMS5003;41313;58.740;50.174;2022-09-23T16:57:51;38.67;36.33;22.00
55441;PMS5003;41313;58.740;50.174;2022-09-23T17:02:54;71.67;55.33;29.33
55441;PMS5003;41313;58.740;50.174;2022-09-23T17:08:14;25.50;25.50;16.25
55441;PMS5003;41313;58.740;50.174;2022-09-23T17:13:17;45.67;41.67;24.00
55441;PMS5003;41313;58.740;50.174;2022-09-23T17:18:19;18.25;18.25;10.50
55441;PMS5003;41313;58.740;50.174;2022-09-23T17:23:21;24.00;22.25;12.75
55441;PMS5003;41313;58.740;50.174;2022-09-23T17:28:23;24.50;24.50;17.00
55441;PMS5003;41313;58.740;50.174;2022-09-23T17:33:25;28.75;27.50;17.50
55441;PMS5003;41313;58.740;50.174;2022-09-23T17:38:27;25.67;25.67;17.67
55441;PMS5003;41313;58.740;50.174;2022-09-23T17:43:29;20.00;19.00;10.25
55441;PMS5003;41313;58.740;50.174;2022-09-23T17:48:35;33.25;32.25;21.00
55441;PMS5003;41313;58.740;50.174;2022-09-23T17:53:39;24.25;24.25;15.00
55441;PMS5003;41313;58.740;50.174;2022-09-23T17:58:42;24.50;24.50;16.00
55441;PMS5003;41313;58.740;50.174;2022-09-23T18:03:45;17.00;17.00;11.50
55441;PMS5003;41313;58.740;50.174;2022-09-23T18:08:48;36.33;31.67;18.67
55441;PMS5003;41313;58.740;50.174;2022-09-23T18:13:51;27.75;24.50;16.50
55441;PMS5003;41313;58.740;50.174;2022-09-23T18:18:57;17.00;17.00;11.25
55441;PMS5003;41313;58.740;50.174;2022-09-23T18:24:00;28.50;27.25;15.50
55441;PMS5003;41313;58.740;50.174;2022-09-23T18:29:02;20.25;20.25;12.50
55441;PMS5003;41313;58.740;50.174;2022-09-23T18:34:05;19.25;19.25;11.75
55441;PMS5003;41313;58.740;50.174;2022-09-23T18:39:08;25.00;24.00;14.75
55441;PMS5003;41313;58.740;50.174;2022-09-23T18:44:09;22.00;21.25;11.75
55441;PMS5003;41313;58.740;50.174;2022-09-23T18:49:11;20.25;18.50;10.25
55441;PMS5003;41313;58.740;50.174;2022-09-23T18:54:32;18.75;18.75;13.25
55441;PMS5003;41313;58.740;50.174;2022-09-23T18:59:34;20.25;20.25;13.50
55441;PMS5003;41313;58.740;50.174;2022-09-23T19:04:35;17.75;17.00;8.75
55441;PMS5003;41313;58.740;50.174;2022-09-23T19:09:37;10.75;10.75;7.00
55441;PMS5003;41313;58.740;50.174;2022-09-23T19:14:38;14.33;14.33;9.00
55441;PMS5003;41313;58.740;50.174;2022-09-23T19:19:42;11.25;11.25;7.50
55441;PMS5003;41313;58.740;50.174;2022-09-23T19:24:46;14.75;12.50;7.50
55441;PMS5003;41313;58.740;50.174;2022-09-23T19:29:48;14.75;14.75;8.50
55441;PMS5003;41313;58.740;50.174;2022-09-23T19:34:54;17.00;17.00;10.75
55441;PMS5003;41313;58.740;50.174;2022-09-23T19:39:59;18.25;18.25;13.00
55441;PMS5003;41313;58.740;50.174;2022-09-23T19:45:01;8.25;8.25;6.25
55441;PMS5003;41313;58.740;50.174;2022-09-23T19:50:11;15.50;15.50;10.00
55441;PMS5003;41313;58.740;50.174;2022-09-23T19:55:13;10.75;10.75;8.25
55441;PMS5003;41313;58.740;50.174;2022-09-23T20:00:14;12.00;12.00;8.00
55441;PMS5003;41313;58.740;50.174;2022-09-23T20:05:16;11.25;11.25;8.00
55441;PMS5003;41313;58.740;50.174;2022-09-23T20:10:19;5.00;5.00;2.25
55441;PMS5003;41313;58.740;50.174;2022-09-23T20:15:21;7.50;7.50;6.00
55441;PMS5003;41313;58.740;50.174;2022-09-23T20:20:23;9.75;9.75;6.25
55441;PMS5003;41313;58.740;50.174;2022-09-23T20:25:24;12.50;12.50;7.50
55441;PMS5003;41313;58.740;50.174;2022-09-23T20:30:26;9.00;8.50;7.25
55441;PMS5003;41313;58.740;50.174;2022-09-23T20:35:28;5.50;5.50;3.00
55441;PMS5003;41313;58.740;50.174;2022-09-23T20:40:32;10.50;10.50;7.25
55441;PMS5003;41313;58.740;50.174;2022-09-23T20:45:35;9.25;9.25;6.75
55441;PMS5003;41313;58.740;50.174;2022-09-23T20:50:37;9.25;9.25;6.75
55441;PMS5003;41313;58.740;50.174;2022-09-23T20:55:53;15.25;15.25;10.50
55441;PMS5003;41313;58.740;50.174;2022-09-23T21:01:07;10.00;10.00;5.50
55441;PMS5003;41313;58.740;50.174;2022-09-23T21:06:12;9.25;9.25;5.75
55441;PMS5003;41313;58.740;50.174;2022-09-23T21:11:15;7.25;7.00;5.75
55441;PMS5003;41313;58.740;50.174;2022-09-23T21:16:18;8.00;8.00;6.00
55441;PMS5003;41313;58.740;50.174;2022-09-23T21:21:22;8.50;8.50;6.75
55441;PMS5003;41313;58.740;50.174;2022-09-23T21:26:24;5.75;5.75;3.00
55441;PMS5003;41313;58.740;50.174;2022-09-23T21:31:29;10.00;10.00;6.00
55441;PMS5003;41313;58.740;50.174;2022-09-23T21:36:34;10.25;10.25;7.00
55441;PMS5003;41313;58.740;50.174;2022-09-23T21:41:39;10.25;10.00;7.00
55441;PMS5003;41313;58.740;50.174;2022-09-23T21:46:42;11.00;11.00;7.50
55441;PMS5003;41313;58.740;50.174;2022-09-23T21:51:44;15.00;15.00;11.75
55441;PMS5003;41313;58.740;50.174;2022-09-23T21:56:46;8.50;8.50;6.00
55441;PMS5003;41313;58.740;50.174;2022-09-23T22:01:47;6.75;6.75;5.25
55441;PMS5003;41313;58.740;50.174;2022-09-23T22:06:49;13.25;12.75;9.00
55441;PMS5003;41313;58.740;50.174;2022-09-23T22:11:51;8.00;8.00;5.75
55441;PMS5003;41313;58.740;50.174;2022-09-23T22:17:06;11.75;10.50;6.25
55441;PMS5003;41313;58.740;50.174;2022-09-23T22:22:10;5.00;5.00;3.25
55441;PMS5003;41313;58.740;50.174;2022-09-23T22:27:14;5.25;5.25;4.50
55441;PMS5003;41313;58.740;50.174;2022-09-23T22:32:18;8.25;8.25;5.00
55441;PMS5003;41313;58.740;50.174;2022-09-23T22:37:38;8.75;6.25;4.75
55441;PMS5003;41313;58.740;50.174;2022-09-23T22:42:40;8.00;8.00;4.50
55441;PMS5003;41313;58.740;50.174;2022-09-23T22:47:42;6.00;6.00;3.25
55441;PMS5003;41313;58.740;50.174;2022-09-23T22:52:45;6.50;6.50;4.25
55441;PMS5003;41313;58.740;50.174;2022-09-23T22:57:48;6.75;6.75;5.50
55441;PMS5003;41313;58.740;50.174;2022-09-23T23:02:51;7.25;7.25;5.00
55441;PMS5003;41313;58.740;50.174;2022-09-23T23:07:54;6.00;6.00;5.00
55441;PMS5003;41313;58.740;50.174;2022-09-23T23:12:57;3.00;3.00;2.00
55441;PMS5003;41313;58.740;50.174;2022-09-23T23:17:59;6.75;6.75;4.00
55441;PMS5003;41313;58.740;50.174;2022-09-23T23:23:00;6.00;6.00;5.00
55441;PMS5003;41313;58.740;50.174;2022-09-23T23:28:02;4.50;4.50;2.25
55441;PMS5003;41313;58.740;50.174;2022-09-23T23:33:05;7.25;7.25;6.00
55441;PMS5003;41313;58.740;50.174;2022-09-23T23:38:07;6.50;6.50;5.25
55441;PMS5003;41313;58.740;50.174;2022-09-23T23:43:12;5.00;5.00;3.00
55441;PMS5003;41313;58.740;50.174;2022-09-23T23:48:14;7.00;7.00;5.75
55441;PMS5003;41313;58.740;50.174;2022-09-23T23:53:16;5.75;5.75;2.75
55441;PMS5003;41313;58.740;50.174;2022-09-23T23:58:19;9.00;9.00;5.50
